Terminal Aerodrome Forecast
Issued by NWS Sioux Falls, SD

Home | Current Version | Previous Version | Graphics & Text | Print | Product List | Glossary On
Versions: 1 2 3 4 5 6 7 8 9 10 11 12 13 14 15 16 17 18
196
FTUS43 KFSD 241130
TAFHON
TAF
KHON 241130Z 2412/2512 18014G21KT P6SM SCT100 BKN200
     FM241900 23011KT P6SM SCT050 BKN100
     FM242200 31013G19KT P6SM FEW060 BKN100
     FM250100 34011KT P6SM SCT140
     FM250700 35012KT P6SM SCT020 BKN080=

USA.gov is the U.S. government's official web portal to all federal, state and local government web resources and services.